Time;durP1;ratioP1;P1;durP2;ratioP2;P2;SDS_P1;SDS_P2;PMS_P1;PMS_P2;Temp;Humidity;BMP_temperature;BMP_pressure;BME280_temperature;BME280_humidity;BME280_pressure;Samples;Min_cycle;Max_cycle;Signal;HPM_P1;HPM_P2
2022/10/16 00:02:00;;;;;;;;;12.00;8.75;;;;;29.51;100.00;101383.88;5032039;28;51511;-49
2022/10/16 00:04:45;;;;;;;;;8.75;7.00;;;;;29.49;100.00;101383.09;5036380;28;51159;-49
2022/10/16 00:07:29;;;;;;;;;9.50;6.75;;;;;29.49;100.00;101383.09;5032855;28;51608;-49
2022/10/16 00:10:14;;;;;;;;;7.25;5.50;;;;;29.48;100.00;101377.72;5034068;28;51147;-47
2022/10/16 00:12:59;;;;;;;;;7.75;6.00;;;;;29.45;100.00;101381.56;5037176;28;51270;-48
2022/10/16 00:15:44;;;;;;;;;11.00;7.00;;;;;29.43;100.00;101386.28;5031022;28;51100;-47
2022/10/16 00:18:29;;;;;;;;;10.25;7.00;;;;;29.37;100.00;101373.03;5036532;28;51085;-48
2022/10/16 00:21:17;;;;;;;;;8.00;6.75;;;;;29.38;100.00;101370.19;5035055;28;51276;-49
2022/10/16 00:24:06;;;;;;;;;10.25;6.50;;;;;29.42;100.00;101380.94;5031972;28;51185;-48
2022/10/16 00:26:50;;;;;;;;;10.00;7.00;;;;;29.41;100.00;101368.22;5012048;28;51415;-48
2022/10/16 00:29:35;;;;;;;;;9.00;7.00;;;;;29.41;100.00;101360.88;5034281;28;51113;-47
2022/10/16 00:32:20;;;;;;;;;7.75;7.75;;;;;29.39;100.00;101360.09;5031627;28;51084;-47
2022/10/16 00:35:05;;;;;;;;;15.00;7.00;;;;;29.37;100.00;101351.97;5034955;28;51115;-48
2022/10/16 00:37:50;;;;;;;;;11.00;6.25;;;;;29.35;100.00;101356.72;5032780;28;51238;-48
2022/10/16 00:40:34;;;;;;;;;5.00;5.00;;;;;29.32;100.00;101350.53;5033357;28;51143;-49
2022/10/16 00:43:38;;;;;;;;;9.00;6.75;;;;;29.31;100.00;101346.06;5029090;28;51136;-49
2022/10/16 00:46:39;;;;;;;;;10.75;6.00;;;;;29.30;100.00;101344.31;5034752;28;51498;-49
2022/10/16 00:49:23;;;;;;;;;7.50;6.25;;;;;29.28;100.00;101344.41;5036864;28;51049;-47
2022/10/16 00:52:08;;;;;;;;;10.50;7.00;;;;;29.28;100.00;101335.31;5034477;28;51418;-50
2022/10/16 00:54:54;;;;;;;;;8.75;6.25;;;;;29.19;100.00;101313.09;5039937;28;51093;-47
2022/10/16 00:57:39;;;;;;;;;10.75;7.75;;;;;29.21;100.00;101326.66;5031999;28;52163;-49
2022/10/16 01:00:26;;;;;;;;;7.00;7.00;;;;;29.21;100.00;101326.66;5026878;28;51130;-47
2022/10/16 01:03:29;;;;;;;;;6.75;6.50;;;;;29.22;100.00;101322.94;5030934;28;51036;-47
2022/10/16 01:06:23;;;;;;;;;8.00;8.00;;;;;29.21;100.00;101315.72;5033330;28;51507;-48
2022/10/16 01:09:22;;;;;;;;;11.50;6.00;;;;;29.21;100.00;101315.72;5036272;28;51998;-47
2022/10/16 01:12:15;;;;;;;;;7.00;5.75;;;;;29.18;100.00;101316.81;5035828;28;51314;-50
2022/10/16 01:15:30;;;;;;;;;11.50;5.25;;;;;29.15;100.00;101314.28;5029816;28;51228;-47
2022/10/16 01:18:24;;;;;;;;;8.75;8.00;;;;;29.13;100.00;101310.78;5031227;28;51444;-47
2022/10/16 01:21:31;;;;;;;;;5.75;5.75;;;;;29.13;100.00;101308.03;5035247;28;51139;-47
2022/10/16 01:24:32;;;;;;;;;11.00;6.75;;;;;29.12;100.00;101303.56;5022519;28;51251;-47
2022/10/16 01:27:19;;;;;;;;;10.25;7.25;;;;;29.13;100.00;101302.56;5021485;28;51230;-48
2022/10/16 01:30:07;;;;;;;;;6.50;6.50;;;;;29.12;100.00;101295.34;5030265;28;51058;-49
2022/10/16 01:33:02;;;;;;;;;9.50;6.25;;;;;29.11;100.00;101296.31;5041873;28;51182;-48
2022/10/16 01:35:55;;;;;;;;;10.25;7.25;;;;;29.10;100.00;101288.22;5042289;28;51164;-48
2022/10/16 01:38:40;;;;;;;;;7.50;6.00;;;;;29.12;100.00;101291.72;5035426;28;51167;-48
2022/10/16 01:41:32;;;;;;;;;7.75;5.50;;;;;29.05;100.00;101286.69;5029989;28;51093;-49
2022/10/16 01:44:20;;;;;;;;;5.75;5.75;;;;;29.06;100.00;101291.19;5022863;28;51459;-50
2022/10/16 01:47:06;;;;;;;;;8.25;6.25;;;;;29.05;100.00;101283.94;5024816;28;51210;-49
2022/10/16 01:49:51;;;;;;;;;7.00;6.25;;;;;29.06;100.00;101287.56;5028282;28;51167;-49
2022/10/16 01:52:39;;;;;;;;;8.50;6.50;;;;;29.00;100.00;101269.72;5041496;28;51159;-49
2022/10/16 01:55:29;;;;;;;;;8.50;6.75;;;;;29.03;100.00;101282.31;5023818;28;51230;-51
2022/10/16 01:58:14;;;;;;;;;9.75;7.00;;;;;29.02;100.00;101275.09;5029307;28;51221;-49
2022/10/16 02:00:59;;;;;;;;;8.75;8.00;;;;;29.02;100.00;101277.81;5038751;28;51238;-49
2022/10/16 02:03:45;;;;;;;;;7.50;7.50;;;;;29.02;100.00;101270.50;5018265;28;51035;-48
2022/10/16 02:06:30;;;;;;;;;6.50;6.25;;;;;29.04;100.00;101274.00;5022077;28;51143;-49
2022/10/16 02:09:16;;;;;;;;;8.25;5.75;;;;;29.02;100.00;101261.38;5029845;28;51486;-48
2022/10/16 02:12:06;;;;;;;;;9.00;7.00;;;;;29.02;100.00;101265.03;5023997;28;51158;-50
2022/10/16 02:14:52;;;;;;;;;11.25;6.25;;;;;29.04;100.00;101262.16;5026850;28;51151;-50
2022/10/16 02:17:37;;;;;;;;;11.75;8.75;;;;;29.04;100.00;101263.03;5041722;28;51160;-48
2022/10/16 02:20:26;;;;;;;;;10.00;7.00;;;;;29.06;100.00;101262.91;5024301;28;51125;-49
2022/10/16 02:23:24;;;;;;;;;11.75;9.25;;;;;29.07;100.00;101249.09;5029639;28;51035;-47
2022/10/16 02:26:13;;;;;;;;;13.00;8.25;;;;;29.03;100.00;101241.22;5028931;28;51124;-52
2022/10/16 02:29:06;;;;;;;;;7.50;6.00;;;;;29.03;100.00;101242.13;5020321;28;51150;-49
2022/10/16 02:32:02;;;;;;;;;8.00;7.00;;;;;29.07;100.00;101248.25;5024592;28;51102;-50
2022/10/16 02:34:49;;;;;;;;;7.00;5.00;;;;;29.05;100.00;101248.34;5031222;28;52845;-49
2022/10/16 02:37:34;;;;;;;;;9.25;7.75;;;;;29.04;100.00;101256.66;5020260;28;51153;-50
2022/10/16 02:40:19;;;;;;;;;15.75;7.25;;;;;29.01;100.00;101254.16;5025211;28;51409;-47
2022/10/16 02:43:05;;;;;;;;;13.75;7.25;;;;;28.99;100.00;101258.91;5033586;28;51090;-48
2022/10/16 02:45:50;;;;;;;;;9.25;7.75;;;;;28.99;100.00;101256.16;5032424;28;51029;-48
2022/10/16 02:48:34;;;;;;;;;8.25;7.75;;;;;29.04;100.00;101259.41;5020105;28;51198;-49
2022/10/16 02:51:19;;;;;;;;;9.50;8.00;;;;;29.06;100.00;101262.91;5028482;28;50988;-49
2022/10/16 02:54:04;;;;;;;;;11.50;7.00;;;;;29.06;100.00;101257.44;5020406;28;51197;-50
2022/10/16 02:56:48;;;;;;;;;13.00;9.75;;;;;29.11;100.00;101266.19;5031718;28;51081;-49
2022/10/16 02:59:32;;;;;;;;;11.25;8.00;;;;;29.14;100.00;101265.97;5035029;28;51187;-48
2022/10/16 03:02:17;;;;;;;;;12.00;7.75;;;;;29.15;100.00;101262.22;5033306;28;51359;-48
2022/10/16 03:05:02;;;;;;;;;7.25;6.25;;;;;29.17;100.00;101264.84;5020511;28;51447;-50
2022/10/16 03:07:47;;;;;;;;;8.75;6.00;;;;;29.19;100.00;101254.66;5020457;28;51166;-49
2022/10/16 03:10:31;;;;;;;;;8.00;7.50;;;;;29.20;100.00;101261.88;5034536;28;51034;-49
2022/10/16 03:13:16;;;;;;;;;11.00;9.00;;;;;29.20;100.00;101259.16;5021624;28;51432;-50
2022/10/16 03:16:01;;;;;;;;;10.75;7.75;;;;;29.17;100.00;101263.00;5038679;28;51021;-49
2022/10/16 03:18:49;;;;;;;;;9.25;7.75;;;;;29.12;100.00;101270.69;5040840;28;51161;-49
2022/10/16 03:21:33;;;;;;;;;10.25;7.75;;;;;29.03;100.00;101253.06;5026532;28;51101;-48
2022/10/16 03:24:18;;;;;;;;;11.25;9.50;;;;;29.06;100.00;101255.56;5028545;28;51017;-48
2022/10/16 03:27:02;;;;;;;;;10.75;6.25;;;;;29.02;100.00;101256.78;5020165;28;51187;-49
2022/10/16 03:29:47;;;;;;;;;9.00;6.50;;;;;28.99;100.00;101259.75;5030746;28;51273;-48
2022/10/16 03:32:32;;;;;;;;;11.75;7.25;;;;;28.97;100.00;101264.47;5035479;28;51186;-47
2022/10/16 03:35:16;;;;;;;;;10.00;8.50;;;;;28.95;100.00;101262.84;5034567;28;51029;-50
2022/10/16 03:38:01;;;;;;;;;12.75;8.25;;;;;28.93;100.00;101273.91;5039636;28;51137;-48
2022/10/16 03:40:46;;;;;;;;;12.25;6.50;;;;;28.91;100.00;101281.38;5034413;28;51325;-49
2022/10/16 03:43:30;;;;;;;;;10.50;9.00;;;;;28.93;100.00;101284.88;5019475;28;51042;-47
2022/10/16 03:46:15;;;;;;;;;14.00;9.25;;;;;28.92;100.00;101283.97;5021887;28;51128;-49
2022/10/16 03:48:59;;;;;;;;;7.75;7.25;;;;;28.92;100.00;101286.72;5039558;28;51460;-48
2022/10/16 03:51:43;;;;;;;;;11.75;10.00;;;;;28.92;100.00;101285.84;5039634;28;51198;-48
2022/10/16 03:54:28;;;;;;;;;14.00;9.00;;;;;28.91;100.00;101279.47;5028432;28;51200;-47
2022/10/16 03:57:12;;;;;;;;;9.00;7.25;;;;;28.88;100.00;101277.00;5039785;28;50986;-48
2022/10/16 03:59:56;;;;;;;;;8.00;7.00;;;;;28.87;100.00;101288.94;5037138;28;51080;-48
2022/10/16 04:02:41;;;;;;;;;8.25;7.50;;;;;28.89;100.00;101281.44;5027758;28;51565;-48
2022/10/16 04:05:26;;;;;;;;;6.75;6.75;;;;;28.89;100.00;101286.94;5039341;28;51202;-51
2022/10/16 04:08:11;;;;;;;;;14.75;7.00;;;;;28.84;100.00;101280.94;5036442;28;51064;-49
2022/10/16 04:10:55;;;;;;;;;11.75;7.00;;;;;28.84;100.00;101272.72;5022423;28;51032;-49
2022/10/16 04:13:40;;;;;;;;;8.75;6.75;;;;;28.89;100.00;101286.94;5030203;28;51642;-49
2022/10/16 04:16:25;;;;;;;;;11.50;9.00;;;;;28.90;100.00;101285.94;5025006;28;51164;-50
2022/10/16 04:19:10;;;;;;;;;10.75;8.25;;;;;28.90;100.00;101285.94;5025188;28;51108;-48
2022/10/16 04:21:55;;;;;;;;;9.25;6.75;;;;;28.87;100.00;101280.72;5039424;28;51052;-50
2022/10/16 04:24:39;;;;;;;;;11.00;8.75;;;;;28.91;100.00;101290.44;5033946;28;51079;-49
2022/10/16 04:27:24;;;;;;;;;8.50;7.75;;;;;28.92;100.00;101305.88;5017786;28;51179;-50
2022/10/16 04:30:08;;;;;;;;;15.25;10.00;;;;;28.94;100.00;101293.94;5023322;28;51177;-49
2022/10/16 04:32:53;;;;;;;;;12.50;8.50;;;;;28.92;100.00;101299.56;5027623;28;51121;-48
2022/10/16 04:35:38;;;;;;;;;9.50;7.75;;;;;28.98;100.00;101306.44;5028183;28;51055;-48
2022/10/16 04:38:23;;;;;;;;;13.50;9.50;;;;;28.99;100.00;101317.28;5032218;28;51214;-48
2022/10/16 04:41:08;;;;;;;;;13.00;10.25;;;;;29.00;100.00;101315.41;5021760;28;51061;-50
2022/10/16 04:43:52;;;;;;;;;10.25;8.50;;;;;29.01;100.00;101320.78;5030678;28;51224;-49
2022/10/16 04:46:36;;;;;;;;;12.00;8.00;;;;;29.02;100.00;101324.41;5019017;28;51017;-49
2022/10/16 04:49:21;;;;;;;;;13.75;12.00;;;;;29.00;100.00;101323.63;5028221;28;51187;-50
2022/10/16 04:52:05;;;;;;;;;13.75;10.25;;;;;29.04;100.00;101333.38;5036881;28;51534;-50
2022/10/16 04:54:50;;;;;;;;;11.75;11.00;;;;;29.05;100.00;101340.63;5039731;28;51091;-49
2022/10/16 04:57:34;;;;;;;;;15.25;10.50;;;;;29.04;100.00;101341.59;5039268;28;51100;-49
2022/10/16 05:00:19;;;;;;;;;12.50;11.00;;;;;29.05;100.00;101344.22;5039440;28;51132;-48
2022/10/16 05:03:07;;;;;;;;;15.75;10.25;;;;;29.03;100.00;101340.75;5037047;28;51001;-48
2022/10/16 05:05:51;;;;;;;;;13.50;10.00;;;;;29.03;100.00;101331.63;5019478;28;51262;-50
2022/10/16 05:08:36;;;;;;;;;14.25;11.25;;;;;29.01;100.00;101336.34;5024473;28;51210;-50
2022/10/16 05:11:20;;;;;;;;;12.50;9.75;;;;;28.99;100.00;101341.94;5036050;28;51060;-47
2022/10/16 05:14:04;;;;;;;;;14.50;11.00;;;;;28.99;100.00;101343.81;5036466;28;51057;-49
2022/10/16 05:16:49;;;;;;;;;13.25;10.25;;;;;28.98;100.00;101344.78;5032545;28;51481;-48
2022/10/16 05:19:33;;;;;;;;;12.00;9.75;;;;;28.98;100.00;101344.78;5023763;28;51179;-49
2022/10/16 05:22:18;;;;;;;;;12.50;9.00;;;;;28.99;100.00;101357.50;5030536;28;51069;-50
2022/10/16 05:25:02;;;;;;;;;12.25;10.50;;;;;28.97;100.00;101368.56;5022790;28;51262;-48
2022/10/16 05:27:48;;;;;;;;;12.50;9.25;;;;;28.97;100.00;101368.56;5024707;28;51141;-48
2022/10/16 05:30:33;;;;;;;;;13.25;10.75;;;;;28.92;100.00;101368.88;5022935;28;51199;-49
2022/10/16 05:33:19;;;;;;;;;11.75;11.50;;;;;29.00;100.00;101372.94;5028859;28;51515;-47
2022/10/16 05:36:07;;;;;;;;;16.75;12.50;;;;;29.00;100.00;101370.19;5019078;28;51470;-48
2022/10/16 06:29:59;;;;;;;;;19.50;17.50;;;;;28.09;100.00;101393.78;4386071;32;51080;-49
2022/10/16 06:32:44;;;;;;;;;23.00;18.75;;;;;28.27;100.00;101383.47;5118443;27;51227;-48
2022/10/16 06:35:29;;;;;;;;;25.00;21.00;;;;;28.55;100.00;101397.97;5112764;27;51200;-46
2022/10/16 06:38:13;;;;;;;;;23.50;17.75;;;;;28.78;100.00;101401.88;5117951;27;51091;-48
2022/10/16 06:40:58;;;;;;;;;18.00;16.25;;;;;29.04;100.00;101405.50;5117232;27;52282;-46
2022/10/16 06:43:44;;;;;;;;;24.75;19.25;;;;;29.24;100.00;101403.19;5114115;27;51208;-46
2022/10/16 06:46:29;;;;;;;;;22.25;17.75;;;;;29.43;100.00;101404.63;5112392;27;51155;-46
2022/10/16 06:49:20;;;;;;;;;20.50;16.50;;;;;29.63;100.00;101398.53;5116992;27;51514;-46
2022/10/16 06:52:05;;;;;;;;;21.75;18.25;;;;;29.87;100.00;101407.78;5117139;27;51350;-49
2022/10/16 06:54:50;;;;;;;;;22.75;18.00;;;;;30.09;100.00;101410.69;5117315;27;51234;-46
2022/10/16 06:57:35;;;;;;;;;18.50;16.75;;;;;30.39;100.00;101409.31;5112553;27;51100;-48
2022/10/16 07:00:20;;;;;;;;;23.00;18.50;;;;;30.65;100.00;101411.06;5116769;27;51598;-47
2022/10/16 07:03:05;;;;;;;;;23.50;17.25;;;;;30.98;100.00;101415.75;5117055;27;51155;-46
2022/10/16 07:05:49;;;;;;;;;20.00;18.00;;;;;31.38;100.00;101418.06;5117141;27;51166;-46
2022/10/16 07:08:35;;;;;;;;;19.75;17.25;;;;;31.93;100.00;101409.03;5109700;27;51126;-46
2022/10/16 07:11:22;;;;;;;;;22.25;21.00;;;;;32.70;100.00;101422.75;5116164;27;51028;-45
2022/10/16 07:14:16;;;;;;;;;19.00;17.25;;;;;33.68;100.00;101417.75;5116556;27;51386;-46
2022/10/16 07:17:01;;;;;;;;;21.00;19.00;;;;;34.85;100.00;101416.13;5116971;27;51184;-47
2022/10/16 07:19:46;;;;;;;;;18.00;16.00;;;;;35.98;100.00;101419.75;5112685;27;51148;-45
2022/10/16 07:22:31;;;;;;;;;19.00;13.00;;;;;37.15;100.00;101408.63;5116132;27;51041;-47
2022/10/16 07:25:15;;;;;;;;;15.50;14.00;;;;;38.17;100.00;101401.41;5116534;27;51206;-45
2022/10/16 07:27:59;;;;;;;;;19.00;15.75;;;;;39.03;100.00;101399.13;5118887;27;51069;-47
2022/10/16 07:30:44;;;;;;;;;18.50;15.50;;;;;40.00;100.00;101395.25;5124101;27;51132;-45
2022/10/16 07:33:29;;;;;;;;;14.75;13.75;;;;;40.45;100.00;101389.84;5123174;27;51057;-47
2022/10/16 07:36:15;;;;;;;;;19.50;15.75;;;;;40.68;100.00;101386.19;5123898;27;51244;-47
2022/10/16 07:39:00;;;;;;;;;16.25;13.25;;;;;41.09;100.00;101382.13;5123117;27;51346;-48
2022/10/16 07:41:44;;;;;;;;;15.00;13.25;;;;;41.12;100.00;101379.81;5119079;27;51217;-47
2022/10/16 07:44:29;;;;;;;;;12.50;12.50;;;;;41.32;100.00;101388.47;5122714;27;51132;-47
2022/10/16 07:47:14;;;;;;;;;15.00;14.00;;;;;41.23;100.00;101392.41;5123650;27;51111;-49
2022/10/16 07:49:59;;;;;;;;;12.25;11.75;;;;;41.27;100.00;101390.13;5122472;27;51455;-46
2022/10/16 07:52:43;;;;;;;;;18.75;16.25;;;;;41.22;100.00;101395.41;5121401;27;51125;-48
2022/10/16 07:55:28;;;;;;;;;19.75;17.25;;;;;40.92;100.00;101387.84;5123174;27;52340;-47
2022/10/16 07:58:13;;;;;;;;;23.00;22.50;;;;;41.05;100.00;101393.66;5122971;27;51557;-45
2022/10/16 08:00:58;;;;;;;;;18.50;17.00;;;;;41.02;100.00;101387.56;5121199;27;51107;-46
2022/10/16 08:03:46;;;;;;;;;16.00;13.00;;;;;40.93;100.00;101394.31;5122012;27;51449;-47
2022/10/16 08:06:36;;;;;;;;;14.50;14.50;;;;;40.80;100.00;101393.03;5122153;27;51459;-47
2022/10/16 08:09:20;;;;;;;;;20.25;17.00;;;;;40.74;100.00;101402.19;5122773;27;51176;-45
2022/10/16 08:12:05;;;;;;;;;14.75;11.75;;;;;40.62;100.00;101406.50;5120914;27;51114;-47
2022/10/16 08:14:50;;;;;;;;;13.25;11.00;;;;;40.43;100.00;101404.00;5121272;27;51215;-47
2022/10/16 08:17:34;;;;;;;;;14.00;12.50;;;;;40.10;100.00;101406.16;5121364;27;51226;-46
2022/10/16 08:20:19;;;;;;;;;17.00;14.50;;;;;39.80;100.00;101401.28;5122877;27;51109;-46
2022/10/16 08:23:04;;;;;;;;;16.50;14.25;;;;;39.71;100.00;101401.47;5121497;27;51176;-45
2022/10/16 08:25:49;;;;;;;;;11.00;10.25;;;;;39.63;100.00;101406.06;5121290;27;51168;-46
2022/10/16 08:28:34;;;;;;;;;12.25;11.50;;;;;39.60;100.00;101403.63;5121433;27;51424;-47
2022/10/16 08:31:19;;;;;;;;;14.00;10.00;;;;;39.53;100.00;101399.00;5122557;27;51126;-47
2022/10/16 08:34:04;;;;;;;;;13.50;11.25;;;;;39.48;100.00;101407.84;5120684;27;51264;-48
2022/10/16 08:36:48;;;;;;;;;11.25;11.00;;;;;39.44;100.00;101409.28;5122150;27;51123;-47
2022/10/16 08:39:33;;;;;;;;;15.50;14.00;;;;;39.40;100.00;101414.34;5121836;27;51184;-46
2022/10/16 08:42:52;;;;;;;;;13.25;10.75;;;;;39.31;100.00;101412.66;5121455;27;51505;-46
2022/10/16 08:45:52;;;;;;;;;9.75;9.25;;;;;39.25;100.00;101422.56;5101718;27;51190;-47
2022/10/16 08:48:54;;;;;;;;;12.75;10.75;;;;;39.21;100.00;101418.38;5109988;27;51099;-46
2022/10/16 08:51:39;;;;;;;;;12.00;10.25;;;;;39.09;100.00;101417.91;5119175;27;51203;-49
2022/10/16 08:54:41;;;;;;;;;10.00;6.75;;;;;38.96;100.00;101420.38;5120221;27;51394;-49
2022/10/16 08:57:27;;;;;;;;;12.25;10.25;;;;;38.69;100.00;101416.88;5116009;27;51587;-45
2022/10/16 09:00:21;;;;;;;;;12.25;12.00;;;;;38.33;100.00;101426.41;5119916;27;51120;-45
2022/10/16 09:03:42;;;;;;;;;14.25;10.75;;;;;37.99;100.00;101424.66;5115335;27;51156;-47
2022/10/16 09:06:44;;;;;;;;;12.50;10.00;;;;;37.72;100.00;101417.44;5121245;27;51443;-48
2022/10/16 09:09:51;;;;;;;;;13.00;8.50;;;;;37.74;100.00;101432.00;5119125;27;51274;-50
2022/10/16 09:12:54;;;;;;;;;9.25;8.50;;;;;37.79;100.00;101433.22;5118348;27;51682;-47
2022/10/16 09:15:53;;;;;;;;;10.25;10.25;;;;;37.58;100.00;101433.69;5120529;27;51106;-46
2022/10/16 09:18:46;;;;;;;;;10.25;7.50;;;;;37.36;100.00;101435.97;5119450;27;51180;-46
2022/10/16 09:21:41;;;;;;;;;11.50;11.50;;;;;37.11;100.00;101440.53;5111684;27;51446;-49
2022/10/16 09:24:26;;;;;;;;;11.00;9.75;;;;;36.98;100.00;101437.31;5116225;27;51963;-46
2022/10/16 09:27:12;;;;;;;;;14.50;10.75;;;;;36.96;100.00;101443.03;5120846;27;51113;-46
2022/10/16 09:29:57;;;;;;;;;11.00;11.00;;;;;36.96;100.00;101436.59;5116886;27;51143;-47
2022/10/16 09:32:43;;;;;;;;;13.50;10.75;;;;;37.00;100.00;101432.47;5120251;27;51546;-48
2022/10/16 09:35:37;;;;;;;;;15.25;11.75;;;;;36.86;100.00;101423.69;5119472;27;51141;-47
2022/10/16 09:38:28;;;;;;;;;11.50;10.25;;;;;36.88;100.00;101435.50;5119238;27;51264;-46
2022/10/16 09:41:19;;;;;;;;;11.50;11.25;;;;;36.92;100.00;101427.75;5119967;27;51496;-47
2022/10/16 09:44:06;;;;;;;;;11.50;11.25;;;;;36.85;100.00;101433.03;5105034;27;51262;-47
2022/10/16 09:47:05;;;;;;;;;16.00;12.75;;;;;36.72;100.00;101430.69;5119992;27;51194;-46
2022/10/16 09:50:01;;;;;;;;;11.50;11.50;;;;;36.65;100.00;101428.72;5118789;27;51156;-46
2022/10/16 09:52:46;;;;;;;;;18.00;15.00;;;;;36.61;100.00;101430.94;5119479;27;51211;-49
2022/10/16 09:55:32;;;;;;;;;15.75;13.50;;;;;36.59;100.00;101421.91;5120422;27;51213;-47
2022/10/16 09:58:16;;;;;;;;;14.75;11.75;;;;;36.70;100.00;101424.44;5104621;27;51076;-47
2022/10/16 10:01:01;;;;;;;;;15.25;12.25;;;;;36.88;100.00;101416.06;5119945;27;51226;-46
2022/10/16 10:03:48;;;;;;;;;12.25;12.25;;;;;37.16;100.00;101402.06;5120522;27;51538;-49
2022/10/16 10:06:41;;;;;;;;;13.75;8.50;;;;;37.41;100.00;101404.13;5114780;27;51433;-46
2022/10/16 10:09:33;;;;;;;;;15.50;11.75;;;;;37.41;100.00;101391.13;5117887;27;51091;-49
2022/10/16 10:12:24;;;;;;;;;15.00;13.50;;;;;37.46;100.00;101398.94;5117422;27;51177;-49
2022/10/16 10:15:12;;;;;;;;;11.75;11.00;;;;;37.58;100.00;101385.59;5117665;27;51295;-46
2022/10/16 10:17:58;;;;;;;;;11.50;11.50;;;;;37.65;100.00;101381.13;5116031;27;52354;-46
2022/10/16 10:20:43;;;;;;;;;14.00;12.75;;;;;37.50;100.00;101390.09;5120973;27;51165;-48
2022/10/16 10:23:29;;;;;;;;;16.00;14.00;;;;;37.35;100.00;101378.75;5120337;27;51435;-49
2022/10/16 10:26:18;;;;;;;;;16.00;11.75;;;;;37.22;100.00;101373.66;5119030;27;51035;-47
2022/10/16 10:29:29;;;;;;;;;13.50;12.25;;;;;37.19;100.00;101373.13;5108162;27;51521;-50
2022/10/16 10:32:28;;;;;;;;;16.25;13.75;;;;;37.37;100.00;101370.22;5092418;27;51135;-47
2022/10/16 10:35:21;;;;;;;;;13.75;13.50;;;;;37.63;100.00;101367.41;5120527;27;51144;-49
2022/10/16 10:38:33;;;;;;;;;17.00;15.25;;;;;37.96;100.00;101347.22;5117186;27;51979;-49
2022/10/16 10:41:29;;;;;;;;;18.25;15.25;;;;;38.17;100.00;101345.84;5120159;27;51624;-49
2022/10/16 10:44:39;;;;;;;;;19.75;14.00;;;;;38.35;100.00;101335.44;5119553;27;51075;-47
2022/10/16 10:47:35;;;;;;;;;19.50;14.50;;;;;38.48;100.00;101331.25;5119498;27;51175;-47
2022/10/16 10:50:26;;;;;;;;;15.50;14.00;;;;;38.38;100.00;101328.66;5120337;27;51471;-47
2022/10/16 10:53:37;;;;;;;;;17.25;13.00;;;;;38.27;100.00;101325.16;5116183;27;51288;-49
2022/10/16 10:56:43;;;;;;;;;18.50;16.25;;;;;38.26;100.00;101317.84;5119698;27;51188;-49
2022/10/16 10:59:52;;;;;;;;;19.00;16.25;;;;;38.24;100.00;101316.31;5118703;27;51187;-48
2022/10/16 11:02:58;;;;;;;;;14.75;13.75;;;;;38.29;100.00;101313.88;5117695;27;51071;-51
2022/10/16 11:05:53;;;;;;;;;12.75;12.00;;;;;38.20;100.00;101315.78;5120378;27;51152;-47
2022/10/16 11:08:42;;;;;;;;;16.50;12.75;;;;;37.99;100.00;101308.00;5113172;27;51164;-47
2022/10/16 11:11:53;;;;;;;;;16.50;12.50;;;;;37.80;100.00;101301.66;5121694;27;51250;-50
2022/10/16 11:15:13;;;;;;;;;14.50;12.25;;;;;37.44;100.00;101303.88;5122540;27;51168;-47
2022/10/16 11:18:08;;;;;;;;;15.00;13.00;;;;;37.03;100.00;101302.66;5123078;27;51549;-50
2022/10/16 11:20:56;;;;;;;;;13.00;12.00;;;;;36.82;100.00;101297.50;5118862;27;51363;-49
2022/10/16 11:23:56;;;;;;;;;15.50;13.75;;;;;36.64;100.00;101291.16;5119515;27;51823;-56
2022/10/16 11:26:43;;;;;;;;;15.50;15.25;;;;;36.57;100.00;101296.47;5120535;27;51126;-57
2022/10/16 11:29:30;;;;;;;;;18.50;15.50;;;;;36.60;100.00;101279.53;5123146;27;51322;-50
2022/10/16 11:32:30;;;;;;;;;16.50;14.25;;;;;36.61;100.00;101275.72;5122128;27;51263;-55
2022/10/16 11:35:22;;;;;;;;;16.00;15.00;;;;;36.65;100.00;101271.59;5119670;27;51145;-54
2022/10/16 11:38:36;;;;;;;;;16.50;13.75;;;;;36.56;100.00;101267.06;5119446;27;51136;-55
2022/10/16 11:41:27;;;;;;;;;15.00;12.75;;;;;36.32;100.00;101262.16;5120842;27;51230;-55
2022/10/16 11:44:34;;;;;;;;;22.00;15.00;;;;;36.12;100.00;101263.25;5122055;27;51211;-55
2022/10/16 11:47:35;;;;;;;;;16.25;14.50;;;;;36.10;100.00;101264.44;5121166;27;51219;-55
2022/10/16 11:51:03;;;;;;;;;11.50;11.50;;;;;36.10;100.00;101259.78;5120202;27;51145;-54
2022/10/16 11:54:09;;;;;;;;;15.50;14.75;;;;;35.99;100.00;101257.25;5059521;28;51574;-55
2022/10/16 11:56:59;;;;;;;;;17.50;12.75;;;;;35.93;100.00;101247.69;5045478;28;51040;-55
2022/10/16 11:59:49;;;;;;;;;13.00;11.75;;;;;35.91;100.00;101255.25;5121420;27;51056;-54
2022/10/16 12:02:49;;;;;;;;;11.75;10.50;;;;;35.71;100.00;101250.91;5120282;27;51440;-56
2022/10/16 12:05:58;;;;;;;;;12.75;11.50;;;;;35.56;100.00;101237.63;5123058;27;51021;-54
2022/10/16 12:08:43;;;;;;;;;11.75;11.50;;;;;35.27;100.00;101241.47;5113666;27;51016;-54
2022/10/16 12:11:28;;;;;;;;;15.75;10.75;;;;;34.97;100.00;101226.94;5121361;27;51540;-55
2022/10/16 12:14:12;;;;;;;;;11.25;10.75;;;;;34.78;100.00;101225.13;5121424;27;51368;-51
2022/10/16 12:17:18;;;;;;;;;12.00;12.00;;;;;34.57;100.00;101214.31;5121242;27;51382;-56
2022/10/16 12:20:12;;;;;;;;;12.00;11.00;;;;;34.53;100.00;101215.63;5118363;27;51293;-54
2022/10/16 12:23:01;;;;;;;;;12.50;9.25;;;;;34.48;100.00;101206.94;5121132;27;51184;-56
2022/10/16 12:25:55;;;;;;;;;12.00;10.50;;;;;34.40;100.00;101208.53;5119192;27;51324;-53
2022/10/16 12:28:40;;;;;;;;;12.25;12.25;;;;;34.41;100.00;101202.00;5121079;27;51048;-54
2022/10/16 12:31:42;;;;;;;;;14.25;12.75;;;;;34.37;100.00;101191.38;5107905;27;51106;-56
2022/10/16 12:34:38;;;;;;;;;11.75;10.25;;;;;34.45;100.00;101200.69;5120532;27;51355;-55
2022/10/16 12:37:37;;;;;;;;;15.50;14.75;;;;;34.46;100.00;101184.97;5119818;27;51167;-56
2022/10/16 12:40:31;;;;;;;;;10.25;9.50;;;;;34.50;100.00;101188.34;5120535;27;51180;-55
2022/10/16 12:43:25;;;;;;;;;11.75;10.25;;;;;34.50;100.00;101178.13;5121253;27;51239;-55
2022/10/16 12:46:09;;;;;;;;;12.00;11.50;;;;;34.39;100.00;101181.97;5121507;27;51214;-56
2022/10/16 12:49:25;;;;;;;;;12.25;10.00;;;;;34.27;100.00;101181.25;5121228;27;51039;-55
2022/10/16 12:52:36;;;;;;;;;10.75;9.25;;;;;34.18;100.00;101170.25;5107976;27;52077;-54
2022/10/16 12:55:22;;;;;;;;;11.00;8.50;;;;;34.18;100.00;101159.19;5118976;27;51173;-53
2022/10/16 12:58:42;;;;;;;;;12.25;9.00;;;;;34.33;100.00;101168.72;5120436;27;51139;-55
2022/10/16 13:01:56;;;;;;;;;14.00;10.75;;;;;34.35;100.00;101163.91;5117624;27;51050;-56
2022/10/16 13:04:59;;;;;;;;;8.25;7.75;;;;;34.26;100.00;101160.16;5115218;27;51200;-55
2022/10/16 13:07:50;;;;;;;;;14.25;10.50;;;;;34.22;100.00;101152.34;5115841;27;51387;-54
2022/10/16 13:10:42;;;;;;;;;8.50;8.25;;;;;34.20;100.00;101151.59;5126086;27;51387;-53
2022/10/16 13:13:59;;;;;;;;;7.75;7.75;;;;;34.19;100.00;101149.88;5119769;27;51163;-54
2022/10/16 13:16:50;;;;;;;;;8.25;7.25;;;;;34.41;100.00;101137.63;5106308;27;51187;-56
2022/10/16 13:19:53;;;;;;;;;13.75;9.75;;;;;34.67;100.00;101135.00;5119524;27;51177;-57
2022/10/16 13:23:15;;;;;;;;;12.50;10.25;;;;;34.82;100.00;101117.88;5119759;27;51417;-54
2022/10/16 13:26:03;;;;;;;;;9.00;8.75;;;;;34.94;100.00;101115.81;5118536;27;51144;-57
2022/10/16 13:28:48;;;;;;;;;12.75;10.25;;;;;34.84;100.00;101097.38;5118494;27;51029;-55
2022/10/16 13:31:34;;;;;;;;;11.75;10.25;;;;;34.72;100.00;101093.09;5117149;27;51180;-57
2022/10/16 13:34:21;;;;;;;;;14.00;13.50;;;;;34.69;100.00;101088.75;5117074;27;51107;-55
2022/10/16 13:37:20;;;;;;;;;11.75;11.00;;;;;34.55;100.00;101090.13;5116929;27;51157;-55
2022/10/16 13:40:26;;;;;;;;;10.75;8.50;;;;;34.40;100.00;101084.25;5119435;27;51173;-56
2022/10/16 13:43:11;;;;;;;;;10.25;8.50;;;;;34.29;100.00;101090.81;5115916;27;51038;-56